Time;durP1;ratioP1;P1;durP2;ratioP2;P2;SDS_P1;SDS_P2;PMS_P1;PMS_P2;Temp;Humidity;BMP_temperature;BMP_pressure;BME280_temperature;BME280_humidity;BME280_pressure;Samples;Min_cycle;Max_cycle;Signal;HPM_P1;HPM_P2
2022/05/08 00:00:36;;;;;;;17.83;14.13;;;13.60;99.90;;;;;;5072461;28;20209;-53
2022/05/08 00:03:04;;;;;;;18.23;13.20;;;13.60;99.90;;;;;;5071517;28;20255;-53
2022/05/08 00:05:32;;;;;;;16.37;14.20;;;13.60;99.90;;;;;;5072282;28;20619;-53
2022/05/08 00:08:05;;;;;;;16.63;13.50;;;13.50;99.90;;;;;;5072475;28;20221;-53
2022/05/08 00:10:33;;;;;;;15.93;13.27;;;13.50;99.90;;;;;;5072337;28;20254;-53
2022/05/08 00:13:02;;;;;;;13.20;11.80;;;13.50;99.90;;;;;;5071830;28;20244;-53
2022/05/08 00:15:30;;;;;;;13.20;11.33;;;13.50;99.90;;;;;;5071781;28;20627;-53
2022/05/08 00:17:58;;;;;;;14.40;12.40;;;13.50;99.90;;;;;;5071716;28;20294;-53
2022/05/08 00:20:27;;;;;;;14.77;11.40;;;13.50;99.90;;;;;;5071598;28;20271;-53
2022/05/08 00:22:55;;;;;;;11.27;10.07;;;13.50;99.90;;;;;;5071788;28;20205;-53
2022/05/08 00:25:24;;;;;;;11.83;10.23;;;13.50;99.90;;;;;;5071874;28;20296;-53
2022/05/08 00:27:52;;;;;;;17.33;11.73;;;13.60;99.90;;;;;;5072250;28;20225;-53
2022/05/08 00:30:21;;;;;;;16.37;10.60;;;13.50;99.90;;;;;;5071812;28;20678;-53
2022/05/08 00:32:49;;;;;;;15.27;11.97;;;13.40;99.90;;;;;;5071253;28;20270;-53
2022/05/08 00:35:17;;;;;;;13.57;11.90;;;13.40;99.90;;;;;;5071320;28;20201;-52
2022/05/08 00:37:45;;;;;;;15.13;11.90;;;13.40;99.90;;;;;;5071700;28;20256;-53
2022/05/08 00:40:13;;;;;;;17.37;12.87;;;13.40;99.90;;;;;;5072227;28;20246;-52
2022/05/08 00:42:43;;;;;;;13.53;11.83;;;13.40;99.90;;;;;;5070733;28;20727;-53
2022/05/08 00:45:11;;;;;;;14.77;12.23;;;13.40;99.90;;;;;;5071291;28;20216;-53
2022/05/08 00:47:41;;;;;;;14.83;12.67;;;13.40;99.90;;;;;;5071462;28;20325;-53
2022/05/08 00:50:10;;;;;;;20.23;13.70;;;13.40;99.90;;;;;;5070901;28;20267;-53
2022/05/08 00:52:38;;;;;;;15.80;13.90;;;13.30;99.90;;;;;;5070070;28;20274;-53
2022/05/08 00:55:07;;;;;;;14.57;13.07;;;13.30;99.90;;;;;;5071292;28;20201;-53
2022/05/08 00:57:36;;;;;;;14.20;12.33;;;13.40;99.90;;;;;;5071088;28;20260;-53
2022/05/08 01:00:06;;;;;;;14.93;12.17;;;13.40;99.90;;;;;;5071173;28;20219;-53
2022/05/08 01:02:35;;;;;;;16.60;12.80;;;13.40;99.90;;;;;;5070506;28;20258;-53
2022/05/08 01:05:05;;;;;;;16.63;12.77;;;13.40;99.90;;;;;;5071195;28;20220;-52
2022/05/08 01:07:33;;;;;;;16.87;12.20;;;13.40;99.90;;;;;;5071056;28;20571;-53
2022/05/08 01:10:02;;;;;;;13.67;11.93;;;13.40;99.90;;;;;;5070843;28;20261;-53
2022/05/08 01:12:33;;;;;;;14.60;12.93;;;13.50;99.90;;;;;;5070668;28;20208;-53
2022/05/08 01:15:16;;;;;;;14.60;12.47;;;13.60;99.90;;;;;;5071183;28;20250;-53
2022/05/08 01:17:44;;;;;;;14.50;12.20;;;13.60;99.90;;;;;;5070146;28;20256;-53
2022/05/08 01:20:14;;;;;;;13.63;12.07;;;13.60;99.90;;;;;;5070760;28;20678;-53
2022/05/08 01:22:43;;;;;;;17.90;13.50;;;13.60;99.90;;;;;;5070676;28;20232;-53
2022/05/08 01:25:11;;;;;;;16.13;13.07;;;13.60;99.90;;;;;;5071178;28;20220;-53
2022/05/08 01:27:39;;;;;;;15.50;13.20;;;13.50;99.90;;;;;;5070281;28;20286;-53
2022/05/08 01:30:08;;;;;;;17.70;13.47;;;13.60;99.90;;;;;;5071012;28;20212;-53
2022/05/08 01:32:36;;;;;;;16.10;13.80;;;13.60;99.90;;;;;;5070766;28;20205;-53
2022/05/08 01:35:05;;;;;;;18.77;15.30;;;13.60;99.90;;;;;;5070875;28;20201;-53
2022/05/08 01:37:33;;;;;;;20.23;16.60;;;13.60;99.90;;;;;;5070757;28;20874;-53
2022/05/08 01:40:02;;;;;;;22.00;16.70;;;13.50;99.90;;;;;;5070810;28;20233;-53
2022/05/08 01:42:31;;;;;;;23.07;18.37;;;13.50;99.90;;;;;;5070436;28;20185;-53
2022/05/08 01:45:00;;;;;;;27.30;21.20;;;13.60;99.90;;;;;;5070655;28;20270;-53
2022/05/08 01:50:13;;;;;;;26.67;20.57;;;13.50;99.90;;;;;;5070915;28;20212;-53
2022/05/08 01:52:41;;;;;;;26.50;21.13;;;13.50;99.90;;;;;;5070511;28;20266;-53
2022/05/08 01:55:11;;;;;;;27.57;23.17;;;13.40;99.90;;;;;;5070697;28;20794;-52
2022/05/08 01:57:39;;;;;;;27.03;20.77;;;13.40;99.90;;;;;;5070542;28;20286;-53
2022/05/08 02:00:08;;;;;;;26.53;21.40;;;13.40;99.90;;;;;;5070265;28;20205;-52
2022/05/08 02:02:37;;;;;;;26.90;21.70;;;13.50;99.90;;;;;;5070481;28;20264;-53
2022/05/08 02:05:05;;;;;;;29.73;22.47;;;13.40;99.90;;;;;;5070447;28;20231;-52
2022/05/08 02:07:35;;;;;;;27.23;21.57;;;13.40;99.90;;;;;;5070394;28;20302;-53
2022/05/08 02:10:03;;;;;;;25.63;21.90;;;13.40;99.90;;;;;;5070864;28;20232;-53
2022/05/08 02:12:34;;;;;;;30.23;23.77;;;13.40;99.90;;;;;;5070416;28;20301;-52
2022/05/08 02:15:02;;;;;;;29.53;22.60;;;13.50;99.90;;;;;;5070483;28;20228;-52
2022/05/08 02:17:30;;;;;;;27.73;23.00;;;13.40;99.90;;;;;;5070583;28;20444;-52
2022/05/08 02:19:58;;;;;;;24.47;21.80;;;13.40;99.90;;;;;;5070110;28;20205;-53
2022/05/08 02:22:26;;;;;;;30.37;23.13;;;13.40;99.90;;;;;;5070286;28;20209;-53
2022/05/08 02:24:54;;;;;;;29.13;22.93;;;13.40;99.90;;;;;;5069725;28;20791;-53
2022/05/08 02:27:22;;;;;;;31.33;22.80;;;13.40;99.90;;;;;;5070376;28;20221;-52
2022/05/08 02:29:53;;;;;;;32.00;23.57;;;13.40;99.90;;;;;;5070542;28;20213;-52
2022/05/08 02:32:21;;;;;;;26.57;22.33;;;13.40;99.90;;;;;;5070054;28;20307;-53
2022/05/08 02:34:49;;;;;;;30.00;21.73;;;13.40;99.90;;;;;;5070226;28;20252;-52
2022/05/08 02:37:17;;;;;;;29.10;22.20;;;13.40;99.90;;;;;;5070216;28;20225;-53
2022/05/08 02:39:45;;;;;;;30.73;22.33;;;13.40;99.90;;;;;;5072210;28;20205;-53
2022/05/08 02:42:13;;;;;;;25.30;22.10;;;13.40;99.90;;;;;;5073676;28;20217;-53
2022/05/08 02:44:41;;;;;;;28.80;22.80;;;13.40;99.90;;;;;;5073321;28;20260;-52
2022/05/08 02:47:10;;;;;;;27.23;21.60;;;13.30;99.90;;;;;;5053819;28;20610;-52
2022/05/08 02:49:38;;;;;;;29.87;21.97;;;13.40;99.90;;;;;;5053619;28;20224;-52
2022/05/08 02:52:07;;;;;;;27.13;22.17;;;13.40;99.90;;;;;;5053497;28;20214;-52
2022/05/08 02:54:35;;;;;;;25.17;21.60;;;13.40;99.90;;;;;;5053620;28;20331;-52
2022/05/08 02:59:50;;;;;;;28.43;22.13;;;13.40;99.90;;;;;;5053473;28;20666;-52
2022/05/08 03:02:19;;;;;;;29.20;22.47;;;13.40;99.90;;;;;;5053285;28;20205;-52
2022/05/08 03:04:47;;;;;;;27.50;21.97;;;13.30;99.90;;;;;;5053574;28;20850;-52
2022/05/08 03:07:15;;;;;;;25.57;21.87;;;13.30;99.90;;;;;;5070688;28;20256;-52
2022/05/08 03:09:43;;;;;;;27.07;21.50;;;13.30;99.90;;;;;;5073517;28;20847;-52
2022/05/08 03:12:12;;;;;;;27.37;21.40;;;13.30;99.90;;;;;;5072909;28;20213;-52
2022/05/08 03:14:40;;;;;;;27.23;22.47;;;13.30;99.90;;;;;;5073093;28;20232;-53
2022/05/08 03:17:08;;;;;;;27.60;22.50;;;13.30;99.90;;;;;;5072083;28;20260;-52
2022/05/08 03:19:37;;;;;;;23.63;20.57;;;13.30;99.90;;;;;;5073261;28;20240;-52
2022/05/08 03:22:06;;;;;;;27.63;21.77;;;13.30;99.90;;;;;;5072483;28;20204;-52
2022/05/08 03:24:34;;;;;;;27.60;22.23;;;13.30;99.90;;;;;;5072821;28;20747;-52
2022/05/08 03:27:02;;;;;;;27.17;22.20;;;13.20;99.90;;;;;;5073316;28;20228;-53
2022/05/08 03:29:30;;;;;;;27.23;21.23;;;13.20;99.90;;;;;;5072810;28;20205;-52
2022/05/08 03:31:58;;;;;;;30.27;22.77;;;13.20;99.90;;;;;;5072911;28;20232;-52
2022/05/08 03:34:26;;;;;;;25.03;21.30;;;13.20;99.90;;;;;;5072840;28;20251;-53
2022/05/08 03:36:55;;;;;;;25.60;21.07;;;13.20;99.90;;;;;;5072841;28;20280;-53
2022/05/08 03:39:23;;;;;;;24.77;20.97;;;13.20;99.90;;;;;;5072806;28;20686;-53
2022/05/08 03:41:51;;;;;;;27.60;22.17;;;13.30;99.90;;;;;;5072831;28;20209;-53
2022/05/08 03:44:19;;;;;;;29.60;22.97;;;13.20;99.90;;;;;;5072876;28;20201;-53
2022/05/08 03:46:47;;;;;;;26.07;21.20;;;13.20;99.90;;;;;;5072423;28;20256;-53
2022/05/08 03:49:16;;;;;;;28.07;21.57;;;13.20;99.90;;;;;;5072803;28;20262;-53
2022/05/08 03:51:44;;;;;;;29.37;20.93;;;13.20;99.90;;;;;;5071414;28;20240;-53
2022/05/08 03:54:13;;;;;;;27.17;22.17;;;13.20;99.90;;;;;;5072105;28;20258;-53
2022/05/08 03:56:41;;;;;;;27.60;21.67;;;13.10;99.90;;;;;;5072174;28;20302;-53
2022/05/08 03:59:10;;;;;;;28.53;21.70;;;13.10;99.90;;;;;;5072534;28;20209;-53
2022/05/08 04:01:38;;;;;;;26.90;22.13;;;13.10;99.90;;;;;;5072685;28;20657;-53
2022/05/08 04:04:06;;;;;;;26.10;21.10;;;13.10;99.90;;;;;;5071836;28;20727;-53
2022/05/08 04:06:35;;;;;;;25.30;21.63;;;13.20;99.90;;;;;;5072063;28;20225;-53
2022/05/08 04:09:03;;;;;;;23.77;20.93;;;13.20;99.90;;;;;;5071352;28;20196;-53
2022/05/08 04:11:32;;;;;;;25.50;21.03;;;13.20;99.90;;;;;;5072464;28;20200;-53
2022/05/08 04:14:00;;;;;;;26.07;21.63;;;13.30;99.90;;;;;;5071725;28;20201;-52
2022/05/08 04:16:28;;;;;;;26.57;21.40;;;13.20;99.90;;;;;;5071412;28;20250;-52
2022/05/08 04:18:56;;;;;;;25.40;21.63;;;13.20;99.90;;;;;;5071990;28;20220;-53
2022/05/08 04:21:24;;;;;;;26.77;21.87;;;13.20;99.90;;;;;;5072412;28;20205;-52
2022/05/08 04:26:39;;;;;;;23.47;20.03;;;13.20;99.90;;;;;;5071814;28;20213;-53
2022/05/08 04:29:07;;;;;;;27.10;21.27;;;13.20;99.90;;;;;;5072105;28;20239;-53
2022/05/08 04:31:35;;;;;;;25.13;20.10;;;13.20;99.90;;;;;;5071656;28;20740;-52
2022/05/08 04:34:04;;;;;;;24.20;20.97;;;13.20;99.90;;;;;;5071369;28;20692;-52
2022/05/08 04:36:32;;;;;;;24.83;20.43;;;13.30;99.90;;;;;;5071119;28;20209;-53
2022/05/08 04:39:00;;;;;;;25.70;20.70;;;13.30;99.90;;;;;;5071817;28;20209;-52
2022/05/08 04:41:28;;;;;;;27.30;22.17;;;13.30;99.90;;;;;;5071853;28;20828;-52
2022/05/08 04:44:00;;;;;;;25.27;20.33;;;13.30;99.90;;;;;;5070935;28;20216;-52
2022/05/08 04:46:29;;;;;;;25.07;20.10;;;13.30;99.90;;;;;;5056382;28;20235;-52
2022/05/08 04:48:58;;;;;;;25.73;20.40;;;13.30;99.90;;;;;;5051676;28;20209;-52
2022/05/08 04:51:26;;;;;;;25.73;21.37;;;13.30;99.90;;;;;;5054131;28;20271;-52
2022/05/08 04:53:54;;;;;;;23.17;19.40;;;13.30;99.90;;;;;;5065365;28;20238;-52
2022/05/08 04:56:22;;;;;;;26.07;19.33;;;13.30;99.90;;;;;;5054217;28;20241;-52
2022/05/08 04:58:50;;;;;;;21.63;19.07;;;13.30;99.90;;;;;;5051131;28;20773;-52
2022/05/08 05:01:19;;;;;;;23.30;18.97;;;13.20;99.90;;;;;;5059214;28;20231;-52
2022/05/08 05:03:48;;;;;;;25.47;19.97;;;13.20;99.90;;;;;;5070311;28;20209;-52
2022/05/08 05:06:16;;;;;;;24.03;18.37;;;13.20;99.90;;;;;;5070646;28;20224;-53
2022/05/08 05:08:45;;;;;;;23.20;19.33;;;13.30;99.90;;;;;;5071083;28;20248;-52
2022/05/08 05:11:13;;;;;;;22.23;19.07;;;13.40;99.90;;;;;;5071199;28;20204;-52
2022/05/08 05:13:41;;;;;;;23.60;18.63;;;13.30;99.90;;;;;;5070447;28;20252;-52
2022/05/08 05:16:09;;;;;;;20.67;17.83;;;13.30;99.90;;;;;;5071379;28;20644;-52
2022/05/08 05:18:38;;;;;;;21.93;17.73;;;13.30;99.90;;;;;;5070361;28;20227;-52
2022/05/08 05:21:06;;;;;;;22.53;18.30;;;13.30;99.90;;;;;;5071070;28;20254;-52
2022/05/08 05:23:35;;;;;;;22.03;17.50;;;13.40;99.90;;;;;;5070308;28;20621;-52
2022/05/08 05:26:04;;;;;;;19.57;17.47;;;13.40;99.90;;;;;;5070853;28;20709;-52
2022/05/08 05:28:32;;;;;;;22.87;18.47;;;13.50;99.90;;;;;;5070832;28;20605;-52
2022/05/08 05:31:00;;;;;;;21.77;17.20;;;13.50;99.90;;;;;;5065297;28;20236;-52
2022/05/08 05:33:29;;;;;;;21.03;16.30;;;13.50;99.90;;;;;;5050734;28;20622;-52
2022/05/08 05:35:58;;;;;;;19.27;16.73;;;13.50;99.90;;;;;;5061993;28;20262;-52
2022/05/08 05:38:26;;;;;;;20.13;15.73;;;13.40;99.90;;;;;;5070691;28;20664;-53
2022/05/08 05:40:54;;;;;;;20.80;16.27;;;13.40;99.90;;;;;;5071094;28;20233;-52
2022/05/08 05:43:22;;;;;;;20.63;15.60;;;13.50;99.90;;;;;;5069349;28;20251;-52
2022/05/08 05:47:49;;;;;;;18.47;15.07;;;13.40;99.90;;;;;;5068053;28;20197;-53
2022/05/08 05:48:38;;;;;;;20.10;15.00;;;13.50;99.90;;;;;;5068682;28;20224;-53
2022/05/08 05:51:07;;;;;;;18.83;14.93;;;13.40;99.90;;;;;;5066993;28;20254;-52
2022/05/08 05:53:37;;;;;;;20.60;15.00;;;13.40;99.90;;;;;;5069221;28;20610;-52
2022/05/08 05:56:05;;;;;;;19.30;14.73;;;13.40;99.90;;;;;;5067350;28;20231;-53
2022/05/08 05:58:33;;;;;;;20.77;14.13;;;13.50;99.90;;;;;;5069742;28;20278;-53
2022/05/08 06:01:01;;;;;;;18.90;14.57;;;13.60;99.90;;;;;;5069766;28;20229;-53
2022/05/08 06:03:29;;;;;;;16.10;13.57;;;13.70;99.90;;;;;;5069160;28;20273;-52
2022/05/08 06:05:57;;;;;;;17.30;13.73;;;13.70;99.90;;;;;;5065617;28;20738;-53
2022/05/08 06:08:27;;;;;;;19.73;14.97;;;13.90;99.90;;;;;;5068229;28;20221;-52
2022/05/08 06:10:55;;;;;;;18.37;14.07;;;14.10;99.90;;;;;;5068729;28;20225;-53
2022/05/08 06:13:23;;;;;;;16.70;13.87;;;14.20;99.90;;;;;;5066543;28;20278;-52
2022/05/08 06:15:51;;;;;;;16.63;13.00;;;14.30;99.90;;;;;;5066959;28;20217;-53
2022/05/08 06:18:19;;;;;;;18.53;13.23;;;14.40;99.90;;;;;;5067560;28;20402;-52
2022/05/08 06:20:48;;;;;;;15.83;12.93;;;14.60;99.90;;;;;;5072904;28;20236;-52
2022/05/08 06:23:16;;;;;;;14.97;13.37;;;14.60;99.90;;;;;;5072797;28;20213;-52
2022/05/08 06:25:46;;;;;;;17.80;13.83;;;14.60;99.90;;;;;;5073816;28;20255;-52
2022/05/08 06:28:19;;;;;;;15.23;12.93;;;14.90;99.90;;;;;;5073252;28;20240;-52
2022/05/08 06:30:47;;;;;;;16.00;12.70;;;15.10;99.90;;;;;;5066172;28;20244;-52
2022/05/08 06:33:15;;;;;;;16.17;12.57;;;15.20;99.90;;;;;;5068775;28;20292;-52
2022/05/08 06:35:43;;;;;;;15.43;12.82;;;15.40;99.90;;;;;;5073323;28;20824;-52
2022/05/08 06:38:12;;;;;;;13.73;12.20;;;15.40;99.90;;;;;;5073499;28;20255;-52
2022/05/08 06:40:41;;;;;;;13.57;12.00;;;15.50;99.90;;;;;;5073799;28;20235;-53
2022/05/08 06:43:11;;;;;;;14.98;11.85;;;15.70;99.90;;;;;;5072234;28;20232;-52
2022/05/08 06:45:39;;;;;;;14.85;11.63;;;16.40;99.90;;;;;;5073182;28;20200;-52
2022/05/08 06:48:07;;;;;;;15.23;12.45;;;16.80;99.90;;;;;;5072822;28;20229;-52
2022/05/08 06:50:35;;;;;;;15.48;11.65;;;17.30;99.90;;;;;;5073217;28;20244;-52
2022/05/08 06:53:06;;;;;;;15.43;11.60;;;17.40;99.90;;;;;;5072803;28;20270;-52
2022/05/08 06:55:35;;;;;;;15.88;11.45;;;17.20;99.90;;;;;;5072824;28;20274;-52
2022/05/08 06:58:03;;;;;;;12.88;11.50;;;17.00;99.90;;;;;;5073252;28;20236;-52
2022/05/08 07:03:18;;;;;;;15.05;11.50;;;16.80;99.90;;;;;;5072416;28;20673;-52
2022/05/08 07:05:47;;;;;;;14.13;11.65;;;16.80;99.90;;;;;;5072328;28;20244;-52
2022/05/08 07:08:15;;;;;;;14.60;11.20;;;16.90;99.90;;;;;;5072512;28;20312;-52
2022/05/08 07:10:43;;;;;;;13.95;12.20;;;17.00;99.90;;;;;;5072866;28;20213;-52
2022/05/08 07:13:11;;;;;;;15.38;12.43;;;17.00;99.90;;;;;;5072107;28;20212;-52
2022/05/08 07:15:41;;;;;;;12.77;11.13;;;17.00;99.90;;;;;;5072637;28;20232;-52
2022/05/08 07:18:27;;;;;;;14.93;11.95;;;17.10;99.90;;;;;;5071335;28;20299;-53
2022/05/08 07:20:56;;;;;;;17.25;12.15;;;17.10;99.90;;;;;;5071810;28;20676;-52
2022/05/08 07:23:24;;;;;;;13.63;11.80;;;17.10;99.90;;;;;;5071987;28;20213;-53
2022/05/08 07:25:52;;;;;;;15.93;12.15;;;17.10;99.90;;;;;;5071402;28;20263;-52
2022/05/08 07:28:20;;;;;;;15.20;12.30;;;17.30;99.90;;;;;;5072278;28;20286;-52
2022/05/08 07:30:50;;;;;;;15.40;11.60;;;17.80;99.90;;;;;;5071663;28;20249;-53
2022/05/08 07:33:19;;;;;;;18.33;13.05;;;18.30;99.90;;;;;;5068375;28;20201;-53
2022/05/08 07:38:34;;;;;;;14.63;13.00;;;18.70;99.90;;;;;;5067826;28;20500;-52
2022/05/08 07:41:03;;;;;;;13.23;11.82;;;18.80;99.90;;;;;;5069521;28;20209;-52
2022/05/08 07:43:31;;;;;;;18.13;11.43;;;18.90;99.90;;;;;;5066748;28;20201;-53
2022/05/08 07:46:01;;;;;;;14.25;12.05;;;19.00;99.90;;;;;;5067308;28;20305;-53
2022/05/08 07:48:29;;;;;;;15.25;11.20;;;19.10;99.90;;;;;;5070337;28;20579;-52
2022/05/08 07:50:59;;;;;;;18.48;11.93;;;19.20;99.90;;;;;;5071838;28;20212;-53
2022/05/08 07:53:28;;;;;;;14.25;11.48;;;19.60;99.90;;;;;;5070397;28;20754;-53
2022/05/08 07:55:57;;;;;;;12.93;10.70;;;19.50;99.90;;;;;;5070366;28;20346;-53
2022/05/08 07:58:31;;;;;;;14.48;10.95;;;19.60;99.90;;;;;;5071447;28;20241;-53
2022/05/08 08:01:04;;;;;;;13.32;11.93;;;19.70;99.90;;;;;;5071867;28;20215;-53
2022/05/08 08:03:34;;;;;;;17.30;12.52;;;19.40;99.90;;;;;;5071354;28;20205;-53
2022/05/08 08:06:03;;;;;;;13.38;11.30;;;19.20;99.90;;;;;;5071686;28;20216;-52
2022/05/08 08:08:36;;;;;;;15.63;11.93;;;19.10;99.90;;;;;;5070635;28;20239;-52
2022/05/08 08:11:05;;;;;;;14.02;11.65;;;18.80;99.90;;;;;;5071699;28;20556;-52
2022/05/08 08:13:35;;;;;;;14.70;12.15;;;18.80;99.90;;;;;;5071028;28;20212;-52
2022/05/08 08:16:05;;;;;;;15.55;12.30;;;18.70;99.90;;;;;;5072066;28;20579;-53
2022/05/08 08:18:33;;;;;;;14.57;11.48;;;18.80;99.90;;;;;;5069057;28;20216;-52
2022/05/08 08:21:09;;;;;;;14.77;11.20;;;18.90;99.90;;;;;;5071512;28;20204;-53
2022/05/08 08:23:37;;;;;;;16.38;12.45;;;18.80;99.90;;;;;;5070580;28;20212;-53
2022/05/08 08:26:06;;;;;;;15.07;11.80;;;18.70;99.90;;;;;;5071468;28;20593;-53
2022/05/08 08:28:34;;;;;;;14.23;11.27;;;18.70;99.90;;;;;;5071242;28;20359;-53
2022/05/08 08:31:02;;;;;;;13.10;11.48;;;18.80;99.90;;;;;;5067476;28;20240;-53
2022/05/08 08:33:31;;;;;;;12.50;10.18;;;18.80;99.90;;;;;;5069653;28;20255;-53
2022/05/08 08:35:59;;;;;;;15.30;10.63;;;19.00;99.90;;;;;;5071471;28;20588;-53
2022/05/08 08:38:28;;;;;;;16.02;10.73;;;19.10;99.90;;;;;;5069436;28;20295;-53
2022/05/08 08:40:58;;;;;;;11.40;10.02;;;19.20;99.90;;;;;;5067724;28;20243;-53
2022/05/08 08:43:27;;;;;;;12.63;10.35;;;19.20;99.90;;;;;;5072565;28;20216;-53
2022/05/08 08:48:53;;;;;;;14.63;11.02;;;19.40;99.90;;;;;;5068257;28;20312;-53
2022/05/08 08:51:22;;;;;;;14.05;10.15;;;19.40;99.90;;;;;;5069061;28;20232;-53
2022/05/08 08:53:55;;;;;;;14.65;10.27;;;19.50;99.90;;;;;;5069971;28;20236;-53
2022/05/08 08:56:23;;;;;;;13.30;10.60;;;19.50;99.90;;;;;;5073773;28;20222;-53
2022/05/08 08:58:52;;;;;;;14.77;10.35;;;19.50;99.90;;;;;;5070649;28;20229;-53
2022/05/08 09:01:21;;;;;;;11.50;10.05;;;19.50;99.90;;;;;;5070282;28;20217;-53
2022/05/08 09:03:50;;;;;;;12.48;10.00;;;19.40;99.90;;;;;;5069646;28;20296;-53
2022/05/08 09:06:18;;;;;;;12.18;10.65;;;19.50;99.90;;;;;;5070200;28;20243;-53
2022/05/08 09:08:47;;;;;;;12.57;9.85;;;19.40;99.90;;;;;;5070114;28;20229;-53
2022/05/08 09:11:32;;;;;;;14.23;10.75;;;19.60;99.90;;;;;;5063860;28;20209;-52
2022/05/08 09:14:00;;;;;;;13.07;10.88;;;19.40;99.90;;;;;;5072270;28;20240;-53
2022/05/08 09:16:29;;;;;;;17.52;12.40;;;19.30;99.90;;;;;;5065927;28;20204;-52
2022/05/08 09:18:59;;;;;;;18.23;10.20;;;19.20;99.90;;;;;;5069319;28;20216;-53
2022/05/08 09:24:15;;;;;;;12.88;10.85;;;19.60;99.90;;;;;;5069975;28;20596;-53
2022/05/08 09:26:43;;;;;;;14.45;11.02;;;19.80;99.90;;;;;;5069154;28;20209;-53
2022/05/08 09:29:22;;;;;;;16.23;11.18;;;19.80;99.90;;;;;;5069444;28;20232;-53
2022/05/08 09:31:50;;;;;;;14.73;10.45;;;19.80;99.90;;;;;;5069320;28;20240;-53
2022/05/08 09:34:19;;;;;;;12.63;10.00;;;20.00;99.90;;;;;;5069094;28;20201;-52
2022/05/08 09:37:04;;;;;;;13.60;9.82;;;20.00;99.90;;;;;;5068731;28;20621;-53
2022/05/08 09:39:33;;;;;;;15.15;10.73;;;20.00;99.90;;;;;;5066508;28;20205;-53
2022/05/08 09:42:01;;;;;;;12.25;9.48;;;20.10;99.90;;;;;;5067123;28;20208;-53
2022/05/08 09:44:29;;;;;;;11.98;9.50;;;20.30;99.90;;;;;;5069318;28;20254;-52
2022/05/08 09:47:00;;;;;;;12.85;8.52;;;20.30;99.90;;;;;;5064856;28;20225;-53
2022/05/08 09:49:31;;;;;;;10.60;8.35;;;20.10;99.90;;;;;;5063505;28;20315;-53
2022/05/08 09:52:01;;;;;;;11.65;9.23;;;20.10;99.90;;;;;;5068664;28;20208;-53
2022/05/08 09:54:30;;;;;;;11.95;8.63;;;20.20;99.90;;;;;;5069206;28;20212;-52
2022/05/08 09:56:59;;;;;;;11.27;8.38;;;19.90;99.90;;;;;;5069632;28;20260;-53
2022/05/08 09:59:28;;;;;;;11.50;8.02;;;19.50;99.90;;;;;;5069203;28;20216;-52
2022/05/08 10:01:56;;;;;;;11.75;8.27;;;19.50;99.90;;;;;;5064688;28;20232;-53
2022/05/08 10:04:24;;;;;;;9.15;7.40;;;19.60;99.90;;;;;;5069789;28;20208;-52
2022/05/08 10:06:56;;;;;;;11.13;7.70;;;19.50;99.90;;;;;;5065840;28;20852;-53
2022/05/08 10:15:19;;;;;;;11.13;7.80;;;19.90;99.90;;;;;;5067512;28;20592;-53
2022/05/08 10:17:47;;;;;;;8.68;7.30;;;20.00;99.90;;;;;;5067544;28;20316;-52
2022/05/08 10:20:16;;;;;;;9.98;7.88;;;20.00;99.90;;;;;;5067282;28;20213;-52
2022/05/08 10:22:50;;;;;;;11.00;7.00;;;20.00;99.90;;;;;;5066724;28;20824;-53
2022/05/08 10:25:18;;;;;;;9.15;6.75;;;20.00;99.90;;;;;;5067670;28;20233;-52
2022/05/08 10:28:07;;;;;;;8.90;7.20;;;19.80;99.90;;;;;;5067117;28;20233;-53
2022/05/08 10:30:35;;;;;;;8.50;6.97;;;19.80;99.90;;;;;;5069155;28;20673;-53
2022/05/08 10:33:04;;;;;;;8.63;6.53;;;19.80;99.90;;;;;;5069020;28;20266;-53
2022/05/08 10:35:32;;;;;;;10.63;6.90;;;19.70;99.90;;;;;;5068771;28;20252;-53
2022/05/08 10:38:21;;;;;;;11.25;6.65;;;19.60;99.90;;;;;;5068817;28;20237;-53
2022/05/08 10:40:49;;;;;;;10.80;7.07;;;19.60;99.90;;;;;;5066449;28;20212;-53
2022/05/08 10:43:30;;;;;;;9.32;6.70;;;19.60;99.90;;;;;;5068405;28;20217;-52
2022/05/08 10:46:23;;;;;;;11.27;7.55;;;19.60;99.90;;;;;;5068890;28;20209;-53
2022/05/08 10:48:53;;;;;;;9.52;6.72;;;19.60;99.90;;;;;;5069017;28;20251;-52
2022/05/08 10:51:22;;;;;;;11.50;7.40;;;19.60;99.90;;;;;;5069228;28;20220;-52
2022/05/08 10:53:52;;;;;;;8.25;6.35;;;19.70;99.90;;;;;;5068771;28;20240;-53
2022/05/08 10:56:20;;;;;;;11.68;6.45;;;19.80;99.90;;;;;;5069119;28;20267;-52
2022/05/08 10:58:53;;;;;;;9.45;6.18;;;19.70;99.90;;;;;;5068913;28;20261;-53
2022/05/08 11:01:24;;;;;;;10.27;5.85;;;19.90;99.90;;;;;;5069153;28;20234;-53
2022/05/08 11:03:52;;;;;;;12.98;6.70;;;19.90;99.90;;;;;;5068316;28;20295;-53
2022/05/08 11:06:22;;;;;;;9.15;5.63;;;20.00;99.90;;;;;;5072376;28;20221;-52
2022/05/08 11:09:00;;;;;;;9.00;5.63;;;20.20;99.90;;;;;;5072702;28;20286;-52
2022/05/08 11:11:29;;;;;;;10.32;6.30;;;20.40;99.90;;;;;;5071034;28;20666;-53
2022/05/08 11:13:57;;;;;;;8.77;5.25;;;20.40;99.90;;;;;;5071588;28;20213;-52
2022/05/08 11:16:36;;;;;;;8.70;5.70;;;20.40;99.90;;;;;;5072764;28;20258;-53
2022/05/08 11:19:06;;;;;;;7.93;5.75;;;20.30;99.90;;;;;;5072425;28;20205;-53
2022/05/08 11:21:35;;;;;;;9.07;5.78;;;20.30;99.90;;;;;;5072147;28;20657;-53
2022/05/08 11:24:05;;;;;;;9.80;6.65;;;20.50;99.90;;;;;;5072136;28;20208;-52
2022/05/08 11:26:34;;;;;;;9.93;6.07;;;20.50;99.90;;;;;;5071822;28;20217;-53
2022/05/08 11:29:04;;;;;;;8.60;5.13;;;20.30;99.90;;;;;;5071673;28;20228;-53
2022/05/08 11:31:35;;;;;;;9.43;5.85;;;20.30;99.90;;;;;;5071795;28;20752;-53
2022/05/08 11:36:49;;;;;;;9.95;6.40;;;20.40;99.90;;;;;;5071021;28;20205;-53
2022/05/08 11:39:20;;;;;;;10.18;5.78;;;20.00;99.90;;;;;;5072534;28;20307;-53
2022/05/08 11:41:50;;;;;;;9.25;6.10;;;20.20;99.90;;;;;;5071939;28;20219;-53
2022/05/08 11:44:28;;;;;;;10.52;6.70;;;20.20;99.90;;;;;;5072487;28;20263;-53
2022/05/08 11:46:57;;;;;;;12.75;6.70;;;20.10;99.90;;;;;;5072141;28;20231;-53
2022/05/08 11:49:27;;;;;;;9.18;6.32;;;19.90;99.90;;;;;;5072143;28;20566;-53
2022/05/08 11:51:56;;;;;;;9.80;6.00;;;19.80;99.90;;;;;;5071160;28;20282;-53
2022/05/08 11:54:32;;;;;;;12.15;6.88;;;19.90;99.90;;;;;;5072680;28;20216;-53
2022/05/08 11:57:14;;;;;;;10.90;6.00;;;19.90;99.90;;;;;;5072310;28;20669;-53
2022/05/08 11:59:44;;;;;;;10.63;6.45;;;20.00;99.90;;;;;;5071599;28;20204;-53
2022/05/08 12:02:12;;;;;;;11.88;6.65;;;19.90;99.90;;;;;;5071301;28;20205;-53
2022/05/08 12:04:43;;;;;;;8.52;6.15;;;19.90;99.90;;;;;;5071558;28;20907;-53
2022/05/08 12:07:12;;;;;;;10.63;6.45;;;19.80;99.90;;;;;;5071902;28;20241;-53
2022/05/08 12:09:53;;;;;;;9.65;5.82;;;19.80;99.90;;;;;;5071616;28;20217;-53
2022/05/08 12:12:25;;;;;;;8.30;6.18;;;19.70;99.90;;;;;;5069443;28;20583;-53
2022/05/08 12:14:58;;;;;;;8.68;5.85;;;19.80;99.90;;;;;;5071305;28;20267;-53
2022/05/08 12:17:27;;;;;;;8.65;5.57;;;19.80;99.90;;;;;;5071602;28;20312;-53
2022/05/08 12:19:56;;;;;;;10.45;5.63;;;19.80;99.90;;;;;;5071352;28;20204;-52
2022/05/08 12:22:26;;;;;;;11.05;5.15;;;19.80;99.90;;;;;;5070977;28;20234;-52
2022/05/08 12:24:58;;;;;;;8.40;5.45;;;19.60;99.90;;;;;;5071586;28;20189;-53
2022/05/08 12:27:26;;;;;;;11.02;6.03;;;19.70;99.90;;;;;;5071405;28;20228;-53
2022/05/08 12:29:56;;;;;;;10.35;5.45;;;19.60;99.90;;;;;;5071253;28;20278;-53
2022/05/08 12:32:25;;;;;;;7.53;4.95;;;19.70;99.90;;;;;;5070848;28;20250;-52
2022/05/08 12:34:54;;;;;;;7.13;4.68;;;19.70;99.90;;;;;;5071184;28;20213;-53
2022/05/08 12:37:22;;;;;;;5.95;4.18;;;19.70;99.90;;;;;;5071292;28;20256;-52
2022/05/08 12:39:50;;;;;;;7.15;4.00;;;19.70;99.90;;;;;;5070783;28;20200;-53
2022/05/08 12:42:20;;;;;;;9.45;4.22;;;19.60;99.90;;;;;;5070375;28;20266;-53
2022/05/08 12:44:48;;;;;;;7.07;4.30;;;19.50;99.90;;;;;;5070724;28;20208;-53
2022/05/08 12:47:18;;;;;;;12.35;4.88;;;19.50;99.90;;;;;;5070678;28;20662;-53
2022/05/08 12:49:48;;;;;;;5.72;4.40;;;19.40;99.90;;;;;;5070426;28;20225;-53
2022/05/08 12:52:17;;;;;;;7.97;4.82;;;19.40;99.90;;;;;;5070490;28;20204;-53
2022/05/08 12:54:45;;;;;;;7.32;4.10;;;19.50;99.90;;;;;;5070437;28;20204;-53
2022/05/08 12:59:42;;;;;;;6.47;3.92;;;19.60;99.90;;;;;;5071091;28;20233;-53
2022/05/08 13:00:03;;;;;;;6.60;3.90;;;19.70;99.90;;;;;;5070546;28;20205;-52
2022/05/08 13:02:31;;;;;;;7.80;4.40;;;19.70;99.90;;;;;;5070203;28;20300;-52
2022/05/08 13:05:00;;;;;;;6.55;3.97;;;19.60;99.90;;;;;;5070642;28;20212;-53
2022/05/08 13:07:28;;;;;;;7.90;3.67;;;19.60;99.90;;;;;;5070310;28;20240;-53
2022/05/08 13:09:56;;;;;;;6.20;3.25;;;19.60;99.90;;;;;;5070757;28;20263;-53